Time;durP1;ratioP1;P1;durP2;ratioP2;P2;SDS_P1;SDS_P2;PMS_P1;PMS_P2;Temp;Humidity;BMP_temperature;BMP_pressure;BME280_temperature;BME280_humidity;BME280_pressure;Samples;Min_cycle;Max_cycle;Signal;HPM_P1;HPM_P2
2023/07/11 00:01:44;;;;;;;5.05;1.00;;;;;;;15.64;100.00;100017.78;6284000;22;20005;-93
2023/07/11 00:04:09;;;;;;;4.15;0.98;;;;;;;15.63;100.00;100011.75;6179711;23;20012;-92
2023/07/11 00:06:34;;;;;;;2.72;0.70;;;;;;;15.60;100.00;99996.41;6283473;22;20481;-93
2023/07/11 00:09:00;;;;;;;7.95;0.75;;;;;;;15.61;100.00;99992.03;6179403;22;20369;-92
2023/07/11 00:11:25;;;;;;;2.20;0.73;;;;;;;15.61;100.00;99992.03;6283024;22;20008;-91
2023/07/11 00:13:51;;;;;;;2.28;0.80;;;;;;;15.62;100.00;99994.50;6179451;23;20001;-92
2023/07/11 00:16:18;;;;;;;3.63;0.40;;;;;;;15.65;100.00;99988.19;6283272;22;20008;-91
2023/07/11 00:18:43;;;;;;;3.00;0.45;;;;;;;15.63;100.00;99977.13;6283567;22;20080;-93
2023/07/11 00:21:09;;;;;;;16.95;1.15;;;;;;;15.65;100.00;99983.00;6179719;22;20145;-92
2023/07/11 00:23:35;;;;;;;2.13;0.32;;;;;;;15.67;100.00;99986.28;6179938;22;20015;-92
2023/07/11 00:26:00;;;;;;;1.05;0.35;;;;;;;15.70;100.00;99986.06;6179947;22;20005;-92
2023/07/11 00:28:26;;;;;;;2.40;0.30;;;;;;;15.72;100.00;99984.16;6179721;22;20087;-91
2023/07/11 00:30:51;;;;;;;1.02;0.60;;;;;;;15.74;100.00;99981.44;6283415;22;20001;-92
2023/07/11 00:33:18;;;;;;;5.18;0.60;;;;;;;15.77;100.00;99981.97;6179903;22;20006;-93
2023/07/11 00:35:45;;;;;;;1.02;0.47;;;;;;;15.82;100.00;99985.00;6284002;22;20001;-94
2023/07/11 00:38:12;;;;;;;2.70;0.60;;;;;;;15.83;100.00;99986.66;6283485;22;20005;-93
2023/07/11 00:40:45;;;;;;;1.52;0.50;;;;;;;15.85;100.00;99986.53;6179237;23;20036;-92
2023/07/11 00:43:18;;;;;;;1.45;0.60;;;;;;;15.89;100.00;99993.09;6283475;22;20158;-92
2023/07/11 00:46:09;;;;;;;3.10;0.55;;;;;;;15.97;100.00;99990.69;6284852;22;20007;-92
2023/07/11 00:48:38;;;;;;;1.80;0.60;;;;;;;15.94;100.00;99995.31;6181050;23;20223;-92
2023/07/11 00:51:07;;;;;;;2.72;0.90;;;;;;;15.92;100.00;99987.63;6181044;22;20036;-93
2023/07/11 00:53:33;;;;;;;2.03;1.00;;;;;;;15.94;100.00;99992.69;6284640;22;20419;-92
2023/07/11 00:56:03;;;;;;;4.47;0.70;;;;;;;15.97;100.00;99997.63;6284825;22;20005;-92
2023/07/11 00:58:29;;;;;;;2.05;0.50;;;;;;;15.89;100.00;99992.28;6180617;22;20001;-92
2023/07/11 01:00:55;;;;;;;2.47;0.50;;;;;;;15.90;100.00;99999.13;6285077;22;20001;-91
2023/07/11 01:03:22;;;;;;;2.33;1.00;;;;;;;15.82;100.00;100000.59;6180567;23;20006;-92
2023/07/11 01:05:48;;;;;;;1.85;0.57;;;;;;;15.77;100.00;99996.75;6180807;22;20008;-92
2023/07/11 01:08:13;;;;;;;2.10;0.40;;;;;;;15.72;100.00;99973.75;6285172;22;19997;-92
2023/07/11 01:10:39;;;;;;;1.48;0.50;;;;;;;15.66;100.00;99987.25;6180694;22;20009;-92
2023/07/11 01:13:05;;;;;;;2.50;0.65;;;;;;;15.52;100.00;99983.22;6180836;23;20088;-92
2023/07/11 01:15:30;;;;;;;1.52;0.65;;;;;;;15.47;100.00;99985.41;6180970;23;20373;-92
2023/07/11 01:17:56;;;;;;;4.63;0.50;;;;;;;15.39;100.00;99991.25;6284621;22;20435;-93
2023/07/11 01:20:22;;;;;;;3.25;0.60;;;;;;;15.39;100.00;99982.66;6180742;22;20005;-91
2023/07/11 01:22:50;;;;;;;1.98;0.40;;;;;;;15.35;100.00;99982.06;6180573;22;19997;-94
2023/07/11 01:25:16;;;;;;;3.00;0.65;;;;;;;15.36;100.00;99998.47;6285334;22;20005;-92
2023/07/11 01:27:44;;;;;;;4.13;0.70;;;;;;;15.30;100.00;99992.03;6180540;23;20043;-93
2023/07/11 01:30:12;;;;;;;4.53;0.80;;;;;;;15.20;100.00;99988.56;6284507;22;20047;-93
2023/07/11 01:32:38;;;;;;;2.05;0.40;;;;;;;15.18;100.00;99985.28;6284722;22;20005;-93
2023/07/11 01:35:03;;;;;;;2.80;0.50;;;;;;;15.11;100.00;99995.34;6180663;22;20442;-92
2023/07/11 01:37:30;;;;;;;2.47;0.73;;;;;;;15.06;100.00;99996.69;6180628;22;20002;-93
2023/07/11 01:39:56;;;;;;;2.78;0.75;;;;;;;14.99;100.00;100002.38;6180487;22;20001;-92
2023/07/11 01:42:21;;;;;;;5.05;0.73;;;;;;;15.06;100.00;99999.28;6284662;22;20044;-92
2023/07/11 01:44:47;;;;;;;2.75;0.70;;;;;;;14.90;100.00;100003.16;6180483;22;20005;-94
2023/07/11 01:47:12;;;;;;;6.32;0.50;;;;;;;14.85;100.00;99999.28;6180527;23;20005;-93
2023/07/11 01:49:37;;;;;;;6.07;0.65;;;;;;;14.72;100.00;99994.28;6180599;22;20442;-92
2023/07/11 01:52:13;;;;;;;5.75;0.73;;;;;;;14.68;100.00;99998.06;6180455;22;20012;-92
2023/07/11 01:54:39;;;;;;;2.67;0.60;;;;;;;14.69;100.00;100003.16;6180319;22;20032;-93
2023/07/11 01:57:07;;;;;;;6.32;0.70;;;;;;;14.63;100.00;99992.44;6284327;22;20433;-93
2023/07/11 01:59:33;;;;;;;2.80;0.65;;;;;;;14.68;100.00;99992.88;6284396;22;20435;-92
2023/07/11 02:01:58;;;;;;;3.17;0.73;;;;;;;14.64;100.00;99992.31;6284217;22;20042;-92
2023/07/11 02:04:24;;;;;;;2.17;0.75;;;;;;;14.53;100.00;99995.78;6284051;22;20001;-92
2023/07/11 02:06:49;;;;;;;4.93;0.80;;;;;;;14.60;100.00;100000.47;6284559;22;20038;-94
2023/07/11 02:09:16;;;;;;;6.43;1.02;;;;;;;14.55;100.00;99993.06;6180620;22;20013;-93
2023/07/11 02:11:41;;;;;;;6.15;0.70;;;;;;;14.57;100.00;99998.13;6284186;22;20016;-92
2023/07/11 02:14:07;;;;;;;4.07;1.15;;;;;;;14.68;100.00;100000.66;6180535;23;20006;-93
2023/07/11 02:16:32;;;;;;;6.47;1.00;;;;;;;14.59;100.00;99997.06;6180521;22;20005;-93
2023/07/11 02:18:57;;;;;;;3.33;1.55;;;;;;;14.49;100.00;99990.94;6284227;22;20088;-92
2023/07/11 02:21:23;;;;;;;5.65;0.88;;;;;;;14.49;100.00;99988.34;6180483;22;19997;-92
2023/07/11 02:23:48;;;;;;;1.95;0.73;;;;;;;14.46;100.00;99994.59;6180358;23;20004;-92
2023/07/11 02:26:15;;;;;;;7.88;0.80;;;;;;;14.49;100.00;100007.34;6180376;23;20054;-92
2023/07/11 02:28:40;;;;;;;3.65;0.85;;;;;;;14.57;100.00;100000.72;6180242;23;20036;-92
2023/07/11 02:31:05;;;;;;;3.72;0.90;;;;;;;14.54;100.00;99996.59;6180301;22;20001;-92
2023/07/11 02:33:31;;;;;;;7.40;1.10;;;;;;;14.55;100.00;100001.66;6180329;23;19997;-93
2023/07/11 02:35:56;;;;;;;4.38;0.85;;;;;;;14.46;100.00;100005.00;6180898;22;20005;-92
2023/07/11 02:38:22;;;;;;;4.72;1.08;;;;;;;14.39;100.00;100014.22;6180378;23;20005;-92
2023/07/11 02:40:47;;;;;;;4.35;1.10;;;;;;;14.41;100.00;100007.13;6180267;23;20005;-93
2023/07/11 02:43:14;;;;;;;3.17;0.90;;;;;;;14.47;100.00;99996.25;6180207;23;20005;-92
2023/07/11 02:45:39;;;;;;;7.22;1.27;;;;;;;14.37;100.00;100002.31;6180274;22;19997;-92
2023/07/11 02:48:05;;;;;;;4.30;1.02;;;;;;;14.17;100.00;100004.72;6180123;23;20005;-93
2023/07/11 02:50:30;;;;;;;6.70;1.33;;;;;;;14.16;100.00;99997.06;6180502;22;20090;-93
2023/07/11 02:52:56;;;;;;;6.93;1.42;;;;;;;14.17;100.00;99999.53;6180247;22;20005;-93
2023/07/11 02:55:21;;;;;;;9.68;1.67;;;;;;;14.05;100.00;100003.91;6180250;23;20005;-92
2023/07/11 02:57:46;;;;;;;8.88;2.05;;;;;;;14.04;100.00;99999.66;6180232;22;20011;-92
2023/07/11 03:00:12;;;;;;;7.07;1.90;;;;;;;14.01;100.00;100002.50;6180261;22;20013;-92
2023/07/11 03:02:37;;;;;;;7.72;1.73;;;;;;;14.01;100.00;99997.31;6283428;22;20492;-92
2023/07/11 03:05:04;;;;;;;7.00;1.67;;;;;;;13.93;100.00;100002.28;6283970;22;20001;-92
2023/07/11 03:07:29;;;;;;;19.02;2.72;;;;;;;13.80;100.00;99997.25;6283674;22;20005;-92
2023/07/11 03:09:54;;;;;;;10.48;2.22;;;;;;;13.90;100.00;99997.34;6179940;23;20028;-93
2023/07/11 03:12:20;;;;;;;10.77;1.77;;;;;;;13.79;100.00;99986.97;6180237;23;20076;-93
2023/07/11 03:14:48;;;;;;;8.63;1.77;;;;;;;13.78;100.00;99988.75;6179981;23;20005;-92
2023/07/11 03:17:13;;;;;;;10.00;1.75;;;;;;;13.81;100.00;99983.31;6180038;22;20001;-93
2023/07/11 03:19:39;;;;;;;10.82;2.35;;;;;;;13.72;100.00;99983.22;6179944;23;20312;-92
2023/07/11 03:22:04;;;;;;;9.70;2.03;;;;;;;13.85;100.00;99991.66;6180064;23;20016;-92
2023/07/11 03:24:29;;;;;;;12.65;2.38;;;;;;;13.80;100.00;99986.03;6179945;22;20089;-92
2023/07/11 03:26:55;;;;;;;6.78;1.70;;;;;;;13.65;100.00;99978.50;6180516;22;19998;-93
2023/07/11 03:29:20;;;;;;;6.30;2.10;;;;;;;13.57;100.00;99977.44;6180214;23;20001;-93
2023/07/11 03:31:45;;;;;;;7.78;1.70;;;;;;;13.55;100.00;99980.16;6179798;22;20017;-92
2023/07/11 03:34:11;;;;;;;13.07;3.20;;;;;;;13.58;100.00;99992.91;6179827;23;20050;-93
2023/07/11 03:36:36;;;;;;;12.88;1.90;;;;;;;13.48;100.00;99979.81;6180183;22;20040;-92
2023/07/11 03:39:03;;;;;;;7.25;2.30;;;;;;;13.56;100.00;99984.41;6179941;23;20331;-93
2023/07/11 03:41:29;;;;;;;10.70;1.98;;;;;;;13.52;100.00;99982.16;6283536;22;19997;-94
2023/07/11 03:43:54;;;;;;;10.93;2.70;;;;;;;13.57;100.00;99980.88;6179871;23;20057;-92
2023/07/11 03:46:19;;;;;;;8.73;2.05;;;;;;;13.63;100.00;99970.03;6179922;22;20331;-94
2023/07/11 03:48:45;;;;;;;6.88;1.92;;;;;;;13.64;100.00;99976.84;6283957;22;20000;-93
2023/07/11 03:51:10;;;;;;;9.20;2.28;;;;;;;13.48;100.00;99992.78;6179880;22;20013;-94
2023/07/11 03:53:36;;;;;;;4.55;1.83;;;;;;;13.43;100.00;99957.75;6283413;22;20005;-93
2023/07/11 03:56:02;;;;;;;9.00;1.70;;;;;;;13.38;100.00;99965.06;6179756;22;20001;-92
2023/07/11 03:58:27;;;;;;;10.48;1.77;;;;;;;13.33;100.00;99982.75;6179830;22;20016;-92
2023/07/11 04:00:54;;;;;;;10.02;3.03;;;;;;;13.27;100.00;99977.09;6283460;22;20008;-93
2023/07/11 04:03:19;;;;;;;10.43;2.03;;;;;;;13.35;100.00;99960.13;6283618;22;20112;-93
2023/07/11 04:05:44;;;;;;;8.10;2.13;;;;;;;13.34;100.00;99979.19;6179903;23;20427;-93
2023/07/11 04:08:10;;;;;;;9.52;1.95;;;;;;;13.28;100.00;99983.09;6180265;22;20028;-92
2023/07/11 04:10:35;;;;;;;5.05;1.60;;;;;;;13.26;100.00;99971.97;6283557;22;20028;-93
2023/07/11 04:13:02;;;;;;;6.65;1.75;;;;;;;13.25;100.00;99962.56;6283645;22;20009;-93
2023/07/11 04:15:28;;;;;;;9.57;1.80;;;;;;;13.24;100.00;99969.53;6283561;22;20423;-93
2023/07/11 04:17:53;;;;;;;14.77;2.05;;;;;;;13.21;100.00;99980.09;6179909;22;20091;-94
2023/07/11 04:20:19;;;;;;;8.98;2.15;;;;;;;13.24;100.00;99992.00;6180677;23;20005;-93
2023/07/11 04:22:44;;;;;;;5.38;1.52;;;;;;;13.24;100.00;99985.06;6181174;23;20419;-93
2023/07/11 04:25:09;;;;;;;10.80;2.17;;;;;;;13.23;100.00;99961.84;6181074;22;20012;-92
2023/07/11 04:27:35;;;;;;;8.85;2.90;;;;;;;13.26;100.00;99982.34;6284966;22;20039;-93
2023/07/11 04:30:01;;;;;;;12.30;2.45;;;;;;;13.24;100.00;99985.06;6180843;23;20001;-93
2023/07/11 04:32:26;;;;;;;9.68;2.58;;;;;;;13.25;100.00;99989.31;6285266;22;20036;-93
2023/07/11 04:34:51;;;;;;;14.23;2.13;;;;;;;13.28;100.00;99983.91;6181213;23;20001;-92
2023/07/11 04:37:17;;;;;;;9.23;2.20;;;;;;;13.33;100.00;99980.97;6181121;22;20470;-93
2023/07/11 04:39:42;;;;;;;17.08;2.72;;;;;;;13.35;100.00;99986.06;6285285;22;20012;-92
2023/07/11 04:42:08;;;;;;;9.25;1.95;;;;;;;13.38;100.00;99978.03;6180895;22;20012;-93
2023/07/11 04:44:33;;;;;;;9.90;2.38;;;;;;;13.39;100.00;99979.69;6180847;22;20005;-93
2023/07/11 04:47:00;;;;;;;11.05;2.65;;;;;;;13.43;100.00;99988.88;6180884;23;20046;-93
2023/07/11 04:49:25;;;;;;;9.05;2.50;;;;;;;13.43;100.00;99976.72;6285079;22;20010;-92
2023/07/11 04:51:50;;;;;;;7.68;2.30;;;;;;;13.47;100.00;99991.13;6180714;23;20328;-93
2023/07/11 04:54:16;;;;;;;15.80;3.42;;;;;;;13.55;100.00;99987.94;6284791;22;20054;-93
2023/07/11 04:56:42;;;;;;;8.35;2.58;;;;;;;13.59;100.00;99978.16;6180892;22;20000;-92
2023/07/11 04:59:07;;;;;;;16.30;2.72;;;;;;;13.58;100.00;99974.75;6180982;22;20076;-92
2023/07/11 05:01:34;;;;;;;15.45;2.70;;;;;;;13.58;100.00;99986.88;6180835;22;20006;-93
2023/07/11 05:03:59;;;;;;;15.60;2.83;;;;;;;13.57;100.00;99980.88;6284689;22;19997;-93
2023/07/11 05:06:26;;;;;;;17.13;3.58;;;;;;;13.58;100.00;99974.75;6284722;22;20005;-93
2023/07/11 05:08:51;;;;;;;14.25;2.83;;;;;;;13.63;100.00;99970.03;6285137;22;19997;-93
2023/07/11 05:11:19;;;;;;;19.20;2.58;;;;;;;13.65;100.00;99975.91;6180840;22;20348;-93
2023/07/11 05:13:47;;;;;;;10.80;2.92;;;;;;;13.67;100.00;99976.59;6180734;22;20001;-93
2023/07/11 05:16:20;;;;;;;8.82;2.55;;;;;;;13.68;100.00;99972.25;6180754;22;20008;-93
2023/07/11 05:18:47;;;;;;;12.30;3.30;;;;;;;13.70;100.00;99978.13;6285004;22;20077;-93
2023/07/11 05:21:15;;;;;;;11.48;2.70;;;;;;;13.70;100.00;99978.97;6284780;22;20005;-93
2023/07/11 05:23:41;;;;;;;10.70;3.38;;;;;;;13.75;100.00;99970.81;6180646;22;20032;-92
2023/07/11 05:26:07;;;;;;;13.27;3.88;;;;;;;13.82;100.00;99965.97;6284790;22;20012;-93
2023/07/11 05:28:33;;;;;;;6.35;2.22;;;;;;;13.83;100.00;99973.66;6284883;22;20012;-93
2023/07/11 05:31:03;;;;;;;14.38;3.50;;;;;;;13.91;100.00;99979.06;6284125;22;20009;-92
2023/07/11 05:33:29;;;;;;;14.95;3.03;;;;;;;13.86;100.00;99980.38;6180706;22;20001;-92
2023/07/11 05:38:53;;;;;;;6.97;2.25;;;;;;;13.93;100.00;99981.53;6183111;22;20025;-93
2023/07/11 05:41:19;;;;;;;13.35;2.83;;;;;;;13.98;100.00;99994.97;6284878;22;20062;-93
2023/07/11 05:43:45;;;;;;;15.43;3.35;;;;;;;14.03;100.00;99987.66;6180296;23;20088;-92
2023/07/11 05:46:10;;;;;;;8.98;2.40;;;;;;;14.05;100.00;99988.34;6284395;22;20069;-92
2023/07/11 05:48:36;;;;;;;10.45;2.28;;;;;;;14.08;100.00;99985.50;6180946;22;20008;-93
2023/07/11 05:51:08;;;;;;;13.13;2.33;;;;;;;14.23;100.00;99972.25;6180490;22;20009;-92
2023/07/11 05:53:34;;;;;;;12.20;3.63;;;;;;;14.27;100.00;99986.66;6180563;22;20011;-93
2023/07/11 05:55:59;;;;;;;12.20;3.00;;;;;;;14.30;100.00;99986.41;6284447;22;20050;-92
2023/07/11 05:58:26;;;;;;;14.15;2.40;;;;;;;14.38;100.00;99981.41;6180562;22;20020;-92
2023/07/11 06:00:52;;;;;;;13.68;2.45;;;;;;;14.46;100.00;99984.22;6180568;22;20004;-92
2023/07/11 06:03:18;;;;;;;16.80;3.20;;;;;;;14.62;100.00;99978.63;6284200;22;20577;-92
2023/07/11 06:05:44;;;;;;;17.58;3.67;;;;;;;14.54;100.00;99966.25;6180603;22;20024;-92
2023/07/11 06:08:09;;;;;;;13.00;2.45;;;;;;;14.52;100.00;99978.50;6180311;23;20416;-92
2023/07/11 06:10:35;;;;;;;18.83;2.67;;;;;;;14.48;100.00;99965.91;6180340;23;20080;-91
2023/07/11 06:13:01;;;;;;;19.70;3.10;;;;;;;14.59;100.00;99972.88;6180395;23;20638;-91
2023/07/11 06:15:27;;;;;;;11.60;2.78;;;;;;;14.66;100.00;99987.00;6180056;23;20292;-92
2023/07/11 06:17:52;;;;;;;15.23;2.80;;;;;;;14.95;100.00;99976.81;6180277;23;20005;-92
2023/07/11 06:20:17;;;;;;;10.43;2.60;;;;;;;15.20;100.00;99968.59;6180177;23;20004;-91
2023/07/11 06:22:43;;;;;;;8.27;2.50;;;;;;;15.35;100.00;99966.47;6180314;22;20005;-92
2023/07/11 06:25:08;;;;;;;11.55;2.72;;;;;;;15.25;100.00;99965.59;6180217;23;20028;-92
2023/07/11 06:27:34;;;;;;;12.52;2.60;;;;;;;15.24;100.00;99963.13;6180358;23;20005;-91
2023/07/11 06:29:59;;;;;;;8.40;2.78;;;;;;;15.45;100.00;99955.28;6180116;23;20076;-93
2023/07/11 06:32:24;;;;;;;9.80;2.40;;;;;;;15.26;100.00;99956.03;6180262;22;20005;-92
2023/07/11 06:34:50;;;;;;;14.50;3.20;;;;;;;15.15;100.00;99955.16;6180250;23;20451;-91
2023/07/11 06:37:15;;;;;;;7.43;1.90;;;;;;;15.15;100.00;99954.34;6180442;22;20331;-91
2023/07/11 06:39:41;;;;;;;15.95;2.13;;;;;;;15.18;100.00;99952.28;6180404;22;20060;-91
2023/07/11 06:42:06;;;;;;;12.32;3.00;;;;;;;15.22;100.00;99962.44;6179977;23;20005;-92
2023/07/11 06:44:32;;;;;;;21.80;4.40;;;;;;;15.25;100.00;99960.41;6180360;22;20074;-92
2023/07/11 06:46:57;;;;;;;12.27;2.95;;;;;;;15.29;100.00;99966.16;6180238;22;20015;-91
2023/07/11 06:49:23;;;;;;;10.02;2.22;;;;;;;15.36;100.00;99969.88;6180236;22;20001;-91
2023/07/11 06:51:49;;;;;;;13.13;2.47;;;;;;;15.32;100.00;99966.72;6180183;23;20362;-91
2023/07/11 06:54:15;;;;;;;13.13;2.63;;;;;;;15.34;100.00;99944.03;6179787;23;20066;-91
2023/07/11 06:56:41;;;;;;;10.82;2.80;;;;;;;15.37;100.00;99935.97;6284072;22;20250;-92
2023/07/11 06:59:07;;;;;;;15.85;3.25;;;;;;;15.37;100.00;99948.13;6180269;22;20235;-91
2023/07/11 07:01:32;;;;;;;11.60;2.42;;;;;;;15.54;100.00;99946.69;6180035;22;20078;-92
2023/07/11 07:03:58;;;;;;;12.73;2.83;;;;;;;15.53;100.00;99952.84;6179811;23;20834;-92
2023/07/11 07:06:24;;;;;;;14.43;2.75;;;;;;;15.55;100.00;99966.53;6179965;22;20012;-91
2023/07/11 07:08:49;;;;;;;12.20;2.88;;;;;;;15.56;100.00;99955.19;6180087;22;20475;-91
2023/07/11 07:11:16;;;;;;;12.15;2.92;;;;;;;15.57;100.00;99959.44;6179763;23;20012;-92
2023/07/11 07:13:42;;;;;;;15.18;3.35;;;;;;;15.44;100.00;99962.28;6283371;22;20419;-92
2023/07/11 07:16:08;;;;;;;12.85;3.03;;;;;;;15.59;100.00;99965.34;6179924;23;20004;-91
2023/07/11 07:18:34;;;;;;;8.43;2.60;;;;;;;15.80;100.00;99971.31;6179978;22;20474;-91
2023/07/11 07:21:01;;;;;;;14.93;3.00;;;;;;;15.80;100.00;99966.13;6179580;23;20005;-91
2023/07/11 07:23:27;;;;;;;11.52;2.60;;;;;;;15.84;100.00;99972.69;6179636;23;20016;-91
2023/07/11 07:25:58;;;;;;;19.45;3.85;;;;;;;15.91;100.00;99972.16;6179880;23;20082;-92
2023/07/11 07:28:25;;;;;;;9.05;2.58;;;;;;;15.79;100.00;99977.47;6179812;22;20004;-91
2023/07/11 07:30:53;;;;;;;13.98;2.90;;;;;;;15.83;100.00;99970.22;6179725;22;20009;-91
2023/07/11 07:33:20;;;;;;;24.98;3.70;;;;;;;15.73;100.00;99969.38;6179593;22;20368;-91
2023/07/11 07:35:46;;;;;;;17.60;2.88;;;;;;;15.74;100.00;99961.44;6179793;22;20012;-91
2023/07/11 07:38:11;;;;;;;13.07;2.85;;;;;;;15.73;100.00;99975.41;6179746;22;20002;-91
2023/07/11 07:40:37;;;;;;;16.92;3.35;;;;;;;15.80;100.00;99966.13;6179793;22;20129;-91
2023/07/11 07:43:03;;;;;;;16.75;3.10;;;;;;;15.63;100.00;99958.91;6179693;22;20347;-91
2023/07/11 07:45:28;;;;;;;11.48;2.83;;;;;;;15.81;100.00;99956.53;6179792;22;20001;-91
2023/07/11 07:47:53;;;;;;;16.30;3.63;;;;;;;15.79;100.00;99964.44;6179805;22;20050;-91
2023/07/11 07:50:19;;;;;;;12.77;3.05;;;;;;;15.70;100.00;99956.63;6179696;22;20002;-91
2023/07/11 07:52:46;;;;;;;17.27;3.38;;;;;;;15.59;100.00;99962.72;6179804;22;20459;-91
2023/07/11 07:55:11;;;;;;;18.40;4.10;;;;;;;15.74;100.00;99958.81;6182455;22;20033;-90
2023/07/11 07:57:37;;;;;;;11.38;2.95;;;;;;;15.61;100.00;99974.66;6285067;22;20001;-91
2023/07/11 08:00:04;;;;;;;13.85;3.33;;;;;;;15.75;100.00;99976.09;6180875;22;20099;-90
2023/07/11 08:02:31;;;;;;;11.98;2.83;;;;;;;15.74;100.00;99966.63;6285401;22;19997;-90
2023/07/11 08:04:57;;;;;;;14.68;3.20;;;;;;;15.89;100.00;99968.84;6180707;22;20484;-89
2023/07/11 08:07:23;;;;;;;16.52;3.20;;;;;;;15.97;100.00;99961.19;6180829;22;20005;-89
2023/07/11 08:09:48;;;;;;;14.65;3.15;;;;;;;16.14;100.00;99964.91;6180867;22;20001;-90
2023/07/11 08:12:13;;;;;;;13.80;3.20;;;;;;;16.21;100.00;99963.41;6180608;22;20045;-91
2023/07/11 08:14:40;;;;;;;13.38;2.90;;;;;;;16.38;100.00;99964.53;6180941;22;20092;-90
2023/07/11 08:17:07;;;;;;;12.95;3.20;;;;;;;16.51;100.00;99964.25;6180748;22;19994;-91
2023/07/11 08:19:32;;;;;;;17.58;2.95;;;;;;;16.78;100.00;99960.94;6180855;22;20008;-91
2023/07/11 08:21:58;;;;;;;17.35;3.75;;;;;;;16.90;100.00;99949.44;6284767;22;20005;-91
2023/07/11 08:24:23;;;;;;;13.73;3.03;;;;;;;16.76;100.00;99947.22;6180841;22;20008;-91
2023/07/11 08:26:50;;;;;;;15.27;3.13;;;;;;;16.77;100.00;99941.03;6180631;22;20013;-91
2023/07/11 08:29:16;;;;;;;12.38;2.70;;;;;;;16.78;100.00;99927.06;6181091;23;19997;-90
2023/07/11 08:31:41;;;;;;;10.55;3.08;;;;;;;16.72;100.00;99930.22;6180828;22;20005;-90
2023/07/11 08:34:07;;;;;;;16.30;3.30;;;;;;;16.58;100.00;99939.28;6180457;23;20475;-90
2023/07/11 08:36:32;;;;;;;19.33;4.07;;;;;;;16.68;100.00;99924.47;6180554;23;20308;-91
2023/07/11 08:38:57;;;;;;;10.45;3.13;;;;;;;16.75;100.00;99932.53;6180512;23;20005;-90
2023/07/11 08:41:49;;;;;;;18.75;3.65;;;;;;;16.65;100.00;99938.59;6180950;22;20005;-90
2023/07/11 08:44:35;;;;;;;12.07;2.70;;;;;;;16.83;100.00;99948.34;6180510;23;20082;-90
2023/07/11 08:47:06;;;;;;;15.35;2.92;;;;;;;16.84;100.00;99939.56;6180654;22;20012;-89
2023/07/11 08:49:51;;;;;;;13.98;3.30;;;;;;;16.77;100.00;99934.03;6181118;22;20074;-90
2023/07/11 08:52:19;;;;;;;17.35;3.10;;;;;;;16.90;100.00;99933.78;6180540;22;20012;-90
2023/07/11 08:54:56;;;;;;;14.45;3.17;;;;;;;16.93;100.00;99951.75;6180407;22;20001;-90
2023/07/11 08:57:25;;;;;;;13.55;2.80;;;;;;;16.93;100.00;99949.13;6180612;22;20062;-89
2023/07/11 09:00:02;;;;;;;14.35;3.35;;;;;;;16.66;100.00;99958.47;6180561;23;20288;-90
2023/07/11 09:02:41;;;;;;;16.95;4.82;;;;;;;16.85;100.00;99956.81;6180550;22;20009;-89
2023/07/11 09:05:23;;;;;;;11.82;3.42;;;;;;;16.94;100.00;99955.97;6180414;22;20455;-90
2023/07/11 09:07:52;;;;;;;16.30;2.90;;;;;;;16.99;100.00;99953.78;6180584;23;20002;-90
2023/07/11 09:10:45;;;;;;;13.00;2.55;;;;;;;17.13;100.00;99955.13;6180701;22;20008;-89
2023/07/11 09:13:23;;;;;;;13.55;2.63;;;;;;;17.21;100.00;99946.56;6284392;22;20447;-89
2023/07/11 09:16:06;;;;;;;10.35;2.47;;;;;;;17.40;100.00;99933.44;6180342;23;20009;-90
2023/07/11 09:18:45;;;;;;;16.73;3.60;;;;;;;17.46;100.00;99937.25;6180661;22;20064;-90
2023/07/11 09:21:15;;;;;;;16.27;3.58;;;;;;;17.40;100.00;99943.06;6180308;23;20431;-89
2023/07/11 09:23:56;;;;;;;12.20;2.80;;;;;;;17.42;100.00;99949.78;6180487;22;20012;-89
2023/07/11 09:26:28;;;;;;;14.25;2.78;;;;;;;17.42;100.00;99952.41;6180437;22;19998;-90
2023/07/11 09:29:03;;;;;;;14.95;2.45;;;;;;;17.41;100.00;99944.69;6180391;22;20080;-89
2023/07/11 09:31:38;;;;;;;17.98;2.78;;;;;;;17.27;100.00;99951.22;6180392;22;20009;-90
2023/07/11 09:34:25;;;;;;;12.43;2.42;;;;;;;17.03;100.00;99949.13;6180333;22;20032;-89
2023/07/11 09:36:55;;;;;;;11.40;2.67;;;;;;;17.22;100.00;99936.00;6180461;22;20217;-89
2023/07/11 09:39:58;;;;;;;15.80;3.95;;;;;;;17.29;100.00;99936.28;6180401;22;20005;-89
2023/07/11 09:42:36;;;;;;;8.70;2.17;;;;;;;17.47;100.00;99925.88;6185228;22;20016;-89
2023/07/11 09:45:12;;;;;;;16.92;3.67;;;;;;;17.43;100.00;99927.94;6180284;22;20076;-89
2023/07/11 09:47:40;;;;;;;13.48;2.92;;;;;;;17.66;100.00;99930.19;6180360;22;20384;-89
2023/07/11 09:50:50;;;;;;;11.30;2.92;;;;;;;17.77;100.00;99938.59;6180178;23;20005;-89
2023/07/11 09:53:20;;;;;;;13.85;3.10;;;;;;;17.84;100.00;99949.31;6253087;22;20043;-89
2023/07/11 09:55:52;;;;;;;13.18;2.60;;;;;;;17.52;100.00;99940.13;6180506;22;20008;-89
2023/07/11 09:58:17;;;;;;;10.38;2.85;;;;;;;17.60;100.00;99935.97;6180536;22;20005;-89
2023/07/11 10:00:49;;;;;;;15.10;3.88;;;;;;;17.29;100.00;99941.47;6284169;22;20127;-89
2023/07/11 10:03:16;;;;;;;9.07;2.45;;;;;;;17.53;100.00;99936.56;6284101;22;20009;-89
2023/07/11 10:05:44;;;;;;;13.80;3.10;;;;;;;17.53;100.00;99939.19;6284109;22;20002;-89
2023/07/11 10:08:18;;;;;;;12.75;3.03;;;;;;;17.51;100.00;99938.50;6180481;22;20319;-89
2023/07/11 10:10:52;;;;;;;14.68;2.67;;;;;;;17.45;100.00;99948.69;6180219;22;20004;-89
2023/07/11 10:13:19;;;;;;;13.13;3.20;;;;;;;17.40;100.00;99940.47;6180386;22;20025;-89
2023/07/11 10:15:51;;;;;;;20.45;3.45;;;;;;;17.37;100.00;99941.56;6180273;22;20138;-89
2023/07/11 10:18:28;;;;;;;15.05;3.05;;;;;;;17.29;100.00;99933.66;6179935;22;20080;-89
2023/07/11 10:21:09;;;;;;;16.08;2.72;;;;;;;17.24;100.00;99925.41;6180323;22;20061;-88
2023/07/11 10:23:35;;;;;;;12.25;2.70;;;;;;;17.30;100.00;99930.06;6180230;22;20377;-88
2023/07/11 10:26:18;;;;;;;16.48;2.78;;;;;;;17.29;100.00;99918.81;6180178;23;20009;-89
2023/07/11 10:28:47;;;;;;;12.15;2.63;;;;;;;17.26;100.00;99919.09;6180638;22;20005;-89
2023/07/11 10:31:34;;;;;;;16.90;3.90;;;;;;;17.25;100.00;99916.66;6180227;22;20009;-89
2023/07/11 10:34:07;;;;;;;17.77;3.17;;;;;;;17.36;100.00;99911.22;6180380;22;20021;-89
2023/07/11 10:36:50;;;;;;;13.98;2.95;;;;;;;17.35;100.00;99912.19;6180438;22;20328;-89
2023/07/11 10:39:26;;;;;;;10.43;3.13;;;;;;;17.49;100.00;99909.09;6283744;22;20005;-89
2023/07/11 10:42:02;;;;;;;18.48;4.07;;;;;;;17.29;100.00;99929.25;6283966;22;20439;-89
2023/07/11 10:44:34;;;;;;;16.45;3.13;;;;;;;17.37;100.00;99920.72;6180045;22;19997;-89
2023/07/11 10:47:01;;;;;;;18.52;3.90;;;;;;;17.21;100.00;99920.50;6180119;23;20331;-89
2023/07/11 10:49:36;;;;;;;15.02;3.70;;;;;;;17.26;100.00;99923.50;6179948;23;20300;-89
2023/07/11 10:52:19;;;;;;;10.88;2.92;;;;;;;17.18;100.00;99926.81;6180086;22;20005;-89
2023/07/11 10:54:53;;;;;;;12.82;3.50;;;;;;;17.15;100.00;99921.09;6179783;23;20088;-88
2023/07/11 10:57:40;;;;;;;13.68;3.13;;;;;;;16.97;100.00;99924.44;6180364;22;20384;-89
2023/07/11 11:00:16;;;;;;;12.50;2.70;;;;;;;16.84;100.00;99924.72;6180191;22;20001;-90
2023/07/11 11:03:02;;;;;;;15.00;3.33;;;;;;;16.76;100.00;99921.97;6179669;23;20080;-89
2023/07/11 11:06:04;;;;;;;15.55;3.28;;;;;;;16.72;100.00;99920.59;6180042;22;20005;-89
2023/07/11 11:08:48;;;;;;;14.90;3.17;;;;;;;16.95;100.00;99909.88;6179800;23;20012;-89
2023/07/11 11:11:36;;;;;;;15.38;3.30;;;;;;;16.94;100.00;99897.81;6180554;22;20020;-89
2023/07/11 11:14:20;;;;;;;14.48;3.47;;;;;;;17.05;100.00;99903.69;6180618;22;20009;-89
2023/07/11 11:17:19;;;;;;;13.15;3.67;;;;;;;17.20;100.00;99900.59;6179768;22;20076;-89
2023/07/11 11:19:50;;;;;;;11.15;2.80;;;;;;;17.28;100.00;99891.09;6180020;22;20011;-89
2023/07/11 11:22:44;;;;;;;25.27;5.07;;;;;;;17.39;100.00;99892.69;6179900;23;20005;-89
2023/07/11 11:25:23;;;;;;;12.75;2.85;;;;;;;17.52;100.00;99887.13;6179761;22;20005;-90
2023/07/11 11:28:21;;;;;;;15.00;3.83;;;;;;;17.47;100.00;99889.34;6179919;23;19997;-89
2023/07/11 11:30:57;;;;;;;10.25;2.75;;;;;;;17.65;100.00;99891.97;6283304;22;20016;-89